sensor_id;sensor_type;location;lat;lon;timestamp;P1;durP1;ratioP1;P2;durP2;ratioP2
40150;SDS011;25866;52.420;10.640;2023-02-01T00:01:54;15.43;;;2.63;;
40150;SDS011;25866;52.420;10.640;2023-02-01T00:04:20;14.00;;;3.07;;
40150;SDS011;25866;52.420;10.640;2023-02-01T00:06:47;14.00;;;2.50;;
40150;SDS011;25866;52.420;10.640;2023-02-01T00:09:13;17.07;;;3.70;;
40150;SDS011;25866;52.420;10.640;2023-02-01T00:11:39;12.83;;;3.00;;
40150;SDS011;25866;52.420;10.640;2023-02-01T00:14:06;17.27;;;3.10;;
40150;SDS011;25866;52.420;10.640;2023-02-01T00:16:33;16.77;;;2.80;;
40150;SDS011;25866;52.420;10.640;2023-02-01T00:19:00;15.33;;;2.53;;
40150;SDS011;25866;52.420;10.640;2023-02-01T00:21:34;15.27;;;3.20;;
40150;SDS011;25866;52.420;10.640;2023-02-01T00:24:00;16.13;;;2.63;;
40150;SDS011;25866;52.420;10.640;2023-02-01T00:26:35;16.97;;;3.00;;
40150;SDS011;25866;52.420;10.640;2023-02-01T00:29:04;18.33;;;2.70;;
40150;SDS011;25866;52.420;10.640;2023-02-01T00:31:32;18.73;;;3.20;;
40150;SDS011;25866;52.420;10.640;2023-02-01T00:33:58;14.30;;;2.70;;
40150;SDS011;25866;52.420;10.640;2023-02-01T00:36:24;16.90;;;3.07;;
40150;SDS011;25866;52.420;10.640;2023-02-01T00:38:50;12.27;;;2.37;;
40150;SDS011;25866;52.420;10.640;2023-02-01T00:41:16;22.83;;;3.50;;
40150;SDS011;25866;52.420;10.640;2023-02-01T00:43:44;12.57;;;2.87;;
40150;SDS011;25866;52.420;10.640;2023-02-01T00:46:11;22.60;;;2.93;;
40150;SDS011;25866;52.420;10.640;2023-02-01T00:48:38;21.07;;;2.73;;
40150;SDS011;25866;52.420;10.640;2023-02-01T00:51:14;21.57;;;3.87;;
40150;SDS011;25866;52.420;10.640;2023-02-01T00:53:43;25.83;;;2.93;;
40150;SDS011;25866;52.420;10.640;2023-02-01T00:56:09;17.80;;;3.03;;
40150;SDS011;25866;52.420;10.640;2023-02-01T01:01:15;18.27;;;3.23;;
40150;SDS011;25866;52.420;10.640;2023-02-01T01:03:44;16.67;;;2.87;;
40150;SDS011;25866;52.420;10.640;2023-02-01T01:06:15;19.10;;;3.33;;
40150;SDS011;25866;52.420;10.640;2023-02-01T01:08:43;27.07;;;3.47;;
40150;SDS011;25866;52.420;10.640;2023-02-01T01:11:13;15.33;;;3.20;;
40150;SDS011;25866;52.420;10.640;2023-02-01T01:13:41;14.47;;;2.67;;
40150;SDS011;25866;52.420;10.640;2023-02-01T01:16:07;15.53;;;2.23;;
40150;SDS011;25866;52.420;10.640;2023-02-01T01:18:35;18.67;;;2.93;;
40150;SDS011;25866;52.420;10.640;2023-02-01T01:21:03;15.13;;;2.67;;
40150;SDS011;25866;52.420;10.640;2023-02-01T01:23:30;14.80;;;3.03;;
40150;SDS011;25866;52.420;10.640;2023-02-01T01:25:56;15.50;;;3.07;;
40150;SDS011;25866;52.420;10.640;2023-02-01T01:28:21;10.97;;;2.87;;
40150;SDS011;25866;52.420;10.640;2023-02-01T01:30:47;14.23;;;2.80;;
40150;SDS011;25866;52.420;10.640;2023-02-01T01:33:13;17.07;;;3.03;;
40150;SDS011;25866;52.420;10.640;2023-02-01T01:35:39;20.67;;;3.23;;
40150;SDS011;25866;52.420;10.640;2023-02-01T01:38:05;19.27;;;3.37;;
40150;SDS011;25866;52.420;10.640;2023-02-01T01:40:31;13.07;;;2.80;;
40150;SDS011;25866;52.420;10.640;2023-02-01T01:42:57;14.43;;;3.03;;
40150;SDS011;25866;52.420;10.640;2023-02-01T01:45:27;18.57;;;3.00;;
40150;SDS011;25866;52.420;10.640;2023-02-01T01:47:59;19.17;;;3.40;;
40150;SDS011;25866;52.420;10.640;2023-02-01T01:50:35;15.30;;;3.10;;
40150;SDS011;25866;52.420;10.640;2023-02-01T01:53:13;15.17;;;3.40;;
40150;SDS011;25866;52.420;10.640;2023-02-01T01:55:44;12.27;;;2.73;;
40150;SDS011;25866;52.420;10.640;2023-02-01T01:58:17;20.07;;;2.20;;
40150;SDS011;25866;52.420;10.640;2023-02-01T02:00:46;16.90;;;2.80;;
40150;SDS011;25866;52.420;10.640;2023-02-01T02:05:44;19.00;;;2.93;;
40150;SDS011;25866;52.420;10.640;2023-02-01T02:08:13;24.63;;;3.30;;
40150;SDS011;25866;52.420;10.640;2023-02-01T02:10:39;21.90;;;2.83;;
40150;SDS011;25866;52.420;10.640;2023-02-01T02:13:24;18.80;;;3.60;;
40150;SDS011;25866;52.420;10.640;2023-02-01T02:22:09;20.73;;;2.93;;
40150;SDS011;25866;52.420;10.640;2023-02-01T02:25:13;16.87;;;2.57;;
40150;SDS011;25866;52.420;10.640;2023-02-01T02:34:14;18.37;;;3.50;;
40150;SDS011;25866;52.420;10.640;2023-02-01T02:36:54;20.57;;;3.27;;
40150;SDS011;25866;52.420;10.640;2023-02-01T02:45:53;17.20;;;2.43;;
40150;SDS011;25866;52.420;10.640;2023-02-01T02:48:46;16.50;;;2.93;;
40150;SDS011;25866;52.420;10.640;2023-02-01T02:51:20;20.23;;;3.10;;
40150;SDS011;25866;52.420;10.640;2023-02-01T02:54:18;19.27;;;2.80;;
40150;SDS011;25866;52.420;10.640;2023-02-01T02:57:08;20.83;;;3.03;;
40150;SDS011;25866;52.420;10.640;2023-02-01T02:59:55;16.03;;;2.80;;
40150;SDS011;25866;52.420;10.640;2023-02-01T03:02:42;20.27;;;2.83;;
40150;SDS011;25866;52.420;10.640;2023-02-01T03:05:35;20.33;;;2.87;;
40150;SDS011;25866;52.420;10.640;2023-02-01T03:08:15;23.80;;;3.97;;
40150;SDS011;25866;52.420;10.640;2023-02-01T03:15:58;14.17;;;2.57;;
40150;SDS011;25866;52.420;10.640;2023-02-01T03:21:09;17.27;;;2.80;;
40150;SDS011;25866;52.420;10.640;2023-02-01T03:23:39;23.80;;;3.50;;
40150;SDS011;25866;52.420;10.640;2023-02-01T03:26:09;17.53;;;3.33;;
40150;SDS011;25866;52.420;10.640;2023-02-01T03:28:38;16.50;;;3.27;;
40150;SDS011;25866;52.420;10.640;2023-02-01T03:31:08;16.07;;;2.53;;
40150;SDS011;25866;52.420;10.640;2023-02-01T03:33:34;16.50;;;2.70;;
40150;SDS011;25866;52.420;10.640;2023-02-01T03:36:15;19.50;;;3.23;;
40150;SDS011;25866;52.420;10.640;2023-02-01T03:44:19;14.47;;;2.50;;
40150;SDS011;25866;52.420;10.640;2023-02-01T03:46:56;17.20;;;2.73;;
40150;SDS011;25866;52.420;10.640;2023-02-01T03:49:32;20.37;;;3.10;;
40150;SDS011;25866;52.420;10.640;2023-02-01T03:52:06;16.07;;;2.47;;
40150;SDS011;25866;52.420;10.640;2023-02-01T03:54:38;17.57;;;3.20;;
40150;SDS011;25866;52.420;10.640;2023-02-01T03:57:06;19.87;;;3.23;;
40150;SDS011;25866;52.420;10.640;2023-02-01T03:59:38;21.23;;;2.60;;
40150;SDS011;25866;52.420;10.640;2023-02-01T04:02:05;15.60;;;2.83;;
40150;SDS011;25866;52.420;10.640;2023-02-01T04:04:30;11.97;;;3.03;;
40150;SDS011;25866;52.420;10.640;2023-02-01T04:06:56;18.10;;;3.37;;
40150;SDS011;25866;52.420;10.640;2023-02-01T04:09:22;16.93;;;2.67;;
40150;SDS011;25866;52.420;10.640;2023-02-01T04:11:48;21.27;;;3.33;;
40150;SDS011;25866;52.420;10.640;2023-02-01T04:14:13;13.53;;;2.70;;
40150;SDS011;25866;52.420;10.640;2023-02-01T04:16:39;22.13;;;2.87;;
40150;SDS011;25866;52.420;10.640;2023-02-01T04:19:05;24.63;;;3.13;;
40150;SDS011;25866;52.420;10.640;2023-02-01T04:21:31;19.67;;;3.73;;
40150;SDS011;25866;52.420;10.640;2023-02-01T04:23:57;13.00;;;3.10;;
40150;SDS011;25866;52.420;10.640;2023-02-01T04:26:22;18.80;;;2.70;;
40150;SDS011;25866;52.420;10.640;2023-02-01T04:28:48;12.00;;;2.77;;
40150;SDS011;25866;52.420;10.640;2023-02-01T04:31:15;18.27;;;3.00;;
40150;SDS011;25866;52.420;10.640;2023-02-01T04:33:42;12.97;;;2.90;;
40150;SDS011;25866;52.420;10.640;2023-02-01T04:36:08;16.57;;;3.03;;
40150;SDS011;25866;52.420;10.640;2023-02-01T04:38:34;15.23;;;3.10;;
40150;SDS011;25866;52.420;10.640;2023-02-01T04:41:00;19.10;;;3.70;;
40150;SDS011;25866;52.420;10.640;2023-02-01T04:43:26;17.27;;;3.83;;
40150;SDS011;25866;52.420;10.640;2023-02-01T04:45:51;22.13;;;3.60;;
40150;SDS011;25866;52.420;10.640;2023-02-01T04:48:19;17.87;;;3.90;;
40150;SDS011;25866;52.420;10.640;2023-02-01T04:50:46;13.03;;;3.10;;
40150;SDS011;25866;52.420;10.640;2023-02-01T04:53:14;16.20;;;3.50;;
40150;SDS011;25866;52.420;10.640;2023-02-01T04:55:40;11.93;;;3.07;;
40150;SDS011;25866;52.420;10.640;2023-02-01T04:58:06;16.87;;;2.80;;
40150;SDS011;25866;52.420;10.640;2023-02-01T05:00:32;21.87;;;3.43;;
40150;SDS011;25866;52.420;10.640;2023-02-01T05:02:58;26.53;;;3.30;;
40150;SDS011;25866;52.420;10.640;2023-02-01T05:05:24;16.10;;;2.90;;
40150;SDS011;25866;52.420;10.640;2023-02-01T05:07:50;18.90;;;2.90;;
40150;SDS011;25866;52.420;10.640;2023-02-01T05:10:16;19.27;;;3.80;;
40150;SDS011;25866;52.420;10.640;2023-02-01T05:12:43;17.17;;;3.00;;
40150;SDS011;25866;52.420;10.640;2023-02-01T05:15:28;19.93;;;3.30;;
40150;SDS011;25866;52.420;10.640;2023-02-01T05:17:54;14.97;;;3.50;;
40150;SDS011;25866;52.420;10.640;2023-02-01T05:20:20;19.00;;;2.90;;
40150;SDS011;25866;52.420;10.640;2023-02-01T05:22:46;20.67;;;3.40;;
40150;SDS011;25866;52.420;10.640;2023-02-01T05:25:11;18.93;;;4.00;;
40150;SDS011;25866;52.420;10.640;2023-02-01T05:27:37;19.47;;;3.53;;
40150;SDS011;25866;52.420;10.640;2023-02-01T05:30:04;16.13;;;2.90;;
40150;SDS011;25866;52.420;10.640;2023-02-01T05:32:31;21.20;;;3.80;;
40150;SDS011;25866;52.420;10.640;2023-02-01T05:34:57;19.33;;;4.10;;
40150;SDS011;25866;52.420;10.640;2023-02-01T05:37:22;16.27;;;3.30;;
40150;SDS011;25866;52.420;10.640;2023-02-01T05:39:48;23.77;;;3.20;;
40150;SDS011;25866;52.420;10.640;2023-02-01T05:42:14;17.57;;;3.30;;
40150;SDS011;25866;52.420;10.640;2023-02-01T05:44:40;24.30;;;4.30;;
40150;SDS011;25866;52.420;10.640;2023-02-01T05:47:06;14.77;;;3.50;;
40150;SDS011;25866;52.420;10.640;2023-02-01T05:49:32;18.10;;;3.40;;
40150;SDS011;25866;52.420;10.640;2023-02-01T05:51:58;13.17;;;2.60;;
40150;SDS011;25866;52.420;10.640;2023-02-01T05:54:24;20.60;;;3.97;;
40150;SDS011;25866;52.420;10.640;2023-02-01T05:56:49;13.17;;;2.80;;
40150;SDS011;25866;52.420;10.640;2023-02-01T05:59:15;15.73;;;3.50;;
40150;SDS011;25866;52.420;10.640;2023-02-01T06:01:41;14.50;;;3.27;;
40150;SDS011;25866;52.420;10.640;2023-02-01T06:04:07;14.30;;;2.40;;
40150;SDS011;25866;52.420;10.640;2023-02-01T06:06:32;16.00;;;3.40;;
40150;SDS011;25866;52.420;10.640;2023-02-01T06:08:59;16.67;;;2.80;;
40150;SDS011;25866;52.420;10.640;2023-02-01T06:11:25;14.70;;;2.80;;
40150;SDS011;25866;52.420;10.640;2023-02-01T06:13:51;15.13;;;3.10;;
40150;SDS011;25866;52.420;10.640;2023-02-01T06:16:17;19.60;;;3.80;;
40150;SDS011;25866;52.420;10.640;2023-02-01T06:18:43;19.60;;;3.83;;
40150;SDS011;25866;52.420;10.640;2023-02-01T06:21:08;16.43;;;3.47;;
40150;SDS011;25866;52.420;10.640;2023-02-01T06:23:34;19.77;;;4.20;;
40150;SDS011;25866;52.420;10.640;2023-02-01T06:26:01;14.93;;;3.20;;
40150;SDS011;25866;52.420;10.640;2023-02-01T06:28:29;13.63;;;3.40;;
40150;SDS011;25866;52.420;10.640;2023-02-01T06:30:55;13.43;;;3.67;;
40150;SDS011;25866;52.420;10.640;2023-02-01T06:33:23;20.33;;;3.57;;
40150;SDS011;25866;52.420;10.640;2023-02-01T06:35:55;13.53;;;3.30;;
40150;SDS011;25866;52.420;10.640;2023-02-01T06:38:23;15.30;;;3.40;;
40150;SDS011;25866;52.420;10.640;2023-02-01T06:40:56;16.87;;;3.63;;
40150;SDS011;25866;52.420;10.640;2023-02-01T06:43:23;15.67;;;3.97;;
40150;SDS011;25866;52.420;10.640;2023-02-01T06:45:50;15.07;;;3.10;;
40150;SDS011;25866;52.420;10.640;2023-02-01T06:48:16;18.37;;;3.30;;
40150;SDS011;25866;52.420;10.640;2023-02-01T06:50:42;13.20;;;3.73;;
40150;SDS011;25866;52.420;10.640;2023-02-01T06:53:08;17.57;;;3.80;;
40150;SDS011;25866;52.420;10.640;2023-02-01T06:55:35;16.37;;;3.93;;
40150;SDS011;25866;52.420;10.640;2023-02-01T06:58:00;14.40;;;3.50;;
40150;SDS011;25866;52.420;10.640;2023-02-01T07:00:27;14.60;;;3.03;;
40150;SDS011;25866;52.420;10.640;2023-02-01T07:02:53;11.17;;;2.57;;
40150;SDS011;25866;52.420;10.640;2023-02-01T07:05:20;12.37;;;2.93;;
40150;SDS011;25866;52.420;10.640;2023-02-01T07:07:46;6.53;;;2.50;;
40150;SDS011;25866;52.420;10.640;2023-02-01T07:10:12;18.90;;;3.53;;
40150;SDS011;25866;52.420;10.640;2023-02-01T07:12:37;13.80;;;3.37;;
40150;SDS011;25866;52.420;10.640;2023-02-01T07:15:04;18.13;;;3.50;;
40150;SDS011;25866;52.420;10.640;2023-02-01T07:17:31;14.93;;;3.70;;
40150;SDS011;25866;52.420;10.640;2023-02-01T07:19:57;11.40;;;3.20;;
40150;SDS011;25866;52.420;10.640;2023-02-01T07:22:26;15.40;;;3.30;;
40150;SDS011;25866;52.420;10.640;2023-02-01T07:24:52;14.67;;;3.43;;
40150;SDS011;25866;52.420;10.640;2023-02-01T07:27:18;17.47;;;3.57;;
40150;SDS011;25866;52.420;10.640;2023-02-01T07:29:45;12.00;;;2.67;;
40150;SDS011;25866;52.420;10.640;2023-02-01T07:32:10;13.87;;;3.00;;
40150;SDS011;25866;52.420;10.640;2023-02-01T07:34:36;10.70;;;3.27;;
40150;SDS011;25866;52.420;10.640;2023-02-01T07:37:02;10.20;;;3.10;;
40150;SDS011;25866;52.420;10.640;2023-02-01T07:39:27;15.60;;;3.43;;
40150;SDS011;25866;52.420;10.640;2023-02-01T07:41:56;9.27;;;3.03;;
40150;SDS011;25866;52.420;10.640;2023-02-01T07:44:22;8.53;;;2.70;;
40150;SDS011;25866;52.420;10.640;2023-02-01T07:46:48;6.27;;;2.67;;
40150;SDS011;25866;52.420;10.640;2023-02-01T07:49:14;11.73;;;2.67;;
40150;SDS011;25866;52.420;10.640;2023-02-01T07:51:42;9.87;;;3.03;;
40150;SDS011;25866;52.420;10.640;2023-02-01T07:54:08;10.03;;;2.60;;
40150;SDS011;25866;52.420;10.640;2023-02-01T07:56:34;10.73;;;3.13;;
40150;SDS011;25866;52.420;10.640;2023-02-01T07:59:00;10.73;;;3.03;;
40150;SDS011;25866;52.420;10.640;2023-02-01T08:01:27;15.47;;;3.07;;
40150;SDS011;25866;52.420;10.640;2023-02-01T08:03:54;13.40;;;3.27;;
40150;SDS011;25866;52.420;10.640;2023-02-01T08:06:21;14.67;;;3.30;;
40150;SDS011;25866;52.420;10.640;2023-02-01T08:08:48;9.53;;;2.67;;
40150;SDS011;25866;52.420;10.640;2023-02-01T08:11:15;16.90;;;3.20;;
40150;SDS011;25866;52.420;10.640;2023-02-01T08:13:41;14.47;;;2.90;;
40150;SDS011;25866;52.420;10.640;2023-02-01T08:16:08;8.93;;;2.50;;
40150;SDS011;25866;52.420;10.640;2023-02-01T08:18:36;9.83;;;3.07;;
40150;SDS011;25866;52.420;10.640;2023-02-01T08:21:06;15.70;;;2.93;;
40150;SDS011;25866;52.420;10.640;2023-02-01T08:23:37;9.20;;;2.70;;
40150;SDS011;25866;52.420;10.640;2023-02-01T08:26:17;11.83;;;2.63;;
40150;SDS011;25866;52.420;10.640;2023-02-01T08:28:46;17.07;;;3.40;;
40150;SDS011;25866;52.420;10.640;2023-02-01T08:31:31;10.43;;;2.50;;
40150;SDS011;25866;52.420;10.640;2023-02-01T08:33:58;8.60;;;2.87;;
40150;SDS011;25866;52.420;10.640;2023-02-01T08:36:26;11.20;;;2.83;;
40150;SDS011;25866;52.420;10.640;2023-02-01T08:38:53;12.10;;;2.93;;
40150;SDS011;25866;52.420;10.640;2023-02-01T08:41:21;11.33;;;2.40;;
40150;SDS011;25866;52.420;10.640;2023-02-01T08:43:48;8.27;;;2.23;;
40150;SDS011;25866;52.420;10.640;2023-02-01T08:46:15;7.90;;;2.40;;
40150;SDS011;25866;52.420;10.640;2023-02-01T08:48:42;8.23;;;2.20;;
40150;SDS011;25866;52.420;10.640;2023-02-01T08:51:11;4.63;;;1.60;;
40150;SDS011;25866;52.420;10.640;2023-02-01T08:53:38;3.20;;;1.30;;
40150;SDS011;25866;52.420;10.640;2023-02-01T08:56:08;5.57;;;1.67;;
40150;SDS011;25866;52.420;10.640;2023-02-01T08:58:38;6.60;;;1.60;;
40150;SDS011;25866;52.420;10.640;2023-02-01T09:01:09;6.83;;;1.60;;
40150;SDS011;25866;52.420;10.640;2023-02-01T09:03:38;4.63;;;1.30;;
40150;SDS011;25866;52.420;10.640;2023-02-01T09:06:04;6.00;;;1.50;;
40150;SDS011;25866;52.420;10.640;2023-02-01T09:08:33;7.13;;;1.70;;
40150;SDS011;25866;52.420;10.640;2023-02-01T09:10:59;5.27;;;1.60;;
40150;SDS011;25866;52.420;10.640;2023-02-01T09:13:26;5.93;;;1.40;;
40150;SDS011;25866;52.420;10.640;2023-02-01T09:15:52;5.03;;;1.27;;
40150;SDS011;25866;52.420;10.640;2023-02-01T09:18:18;8.60;;;1.63;;
40150;SDS011;25866;52.420;10.640;2023-02-01T09:20:44;10.80;;;1.70;;
40150;SDS011;25866;52.420;10.640;2023-02-01T09:23:10;8.73;;;1.50;;
40150;SDS011;25866;52.420;10.640;2023-02-01T09:25:36;7.17;;;1.50;;
40150;SDS011;25866;52.420;10.640;2023-02-01T09:28:03;13.83;;;2.30;;
40150;SDS011;25866;52.420;10.640;2023-02-01T09:30:31;9.60;;;1.93;;
40150;SDS011;25866;52.420;10.640;2023-02-01T09:32:57;14.47;;;2.03;;
40150;SDS011;25866;52.420;10.640;2023-02-01T09:35:23;10.10;;;2.30;;
40150;SDS011;25866;52.420;10.640;2023-02-01T09:37:49;13.93;;;2.67;;
40150;SDS011;25866;52.420;10.640;2023-02-01T09:40:15;9.23;;;2.40;;
40150;SDS011;25866;52.420;10.640;2023-02-01T09:48:24;13.63;;;3.20;;
40150;SDS011;25866;52.420;10.640;2023-02-01T09:50:54;10.77;;;3.13;;
40150;SDS011;25866;52.420;10.640;2023-02-01T09:55:56;15.27;;;2.93;;
40150;SDS011;25866;52.420;10.640;2023-02-01T10:01:03;15.83;;;3.07;;
40150;SDS011;25866;52.420;10.640;2023-02-01T10:03:35;11.57;;;2.87;;
40150;SDS011;25866;52.420;10.640;2023-02-01T10:09:06;17.27;;;3.00;;
40150;SDS011;25866;52.420;10.640;2023-02-01T10:14:29;13.50;;;2.27;;
40150;SDS011;25866;52.420;10.640;2023-02-01T10:20:10;12.17;;;2.77;;
40150;SDS011;25866;52.420;10.640;2023-02-01T10:22:50;19.13;;;3.20;;
40150;SDS011;25866;52.420;10.640;2023-02-01T10:25:27;12.27;;;2.80;;
40150;SDS011;25866;52.420;10.640;2023-02-01T10:28:00;11.07;;;2.97;;
40150;SDS011;25866;52.420;10.640;2023-02-01T10:30:29;12.27;;;2.07;;
40150;SDS011;25866;52.420;10.640;2023-02-01T10:33:07;14.97;;;2.57;;
40150;SDS011;25866;52.420;10.640;2023-02-01T10:36:36;13.63;;;3.07;;
40150;SDS011;25866;52.420;10.640;2023-02-01T10:38:42;8.53;;;2.37;;
40150;SDS011;25866;52.420;10.640;2023-02-01T10:41:12;5.13;;;1.70;;
40150;SDS011;25866;52.420;10.640;2023-02-01T10:43:45;9.17;;;2.40;;
40150;SDS011;25866;52.420;10.640;2023-02-01T10:46:14;9.83;;;1.93;;
40150;SDS011;25866;52.420;10.640;2023-02-01T10:48:42;18.40;;;2.43;;
40150;SDS011;25866;52.420;10.640;2023-02-01T10:51:14;17.97;;;3.03;;
40150;SDS011;25866;52.420;10.640;2023-02-01T10:53:56;11.00;;;2.40;;
40150;SDS011;25866;52.420;10.640;2023-02-01T10:56:28;11.10;;;3.07;;
40150;SDS011;25866;52.420;10.640;2023-02-01T10:59:02;12.07;;;2.60;;
40150;SDS011;25866;52.420;10.640;2023-02-01T11:01:39;14.60;;;2.90;;
40150;SDS011;25866;52.420;10.640;2023-02-01T11:04:09;13.30;;;2.50;;
40150;SDS011;25866;52.420;10.640;2023-02-01T11:06:39;12.53;;;2.20;;
40150;SDS011;25866;52.420;10.640;2023-02-01T11:11:32;11.17;;;2.37;;
40150;SDS011;25866;52.420;10.640;2023-02-01T11:14:14;13.60;;;2.43;;
40150;SDS011;25866;52.420;10.640;2023-02-01T11:16:43;12.67;;;2.63;;
40150;SDS011;25866;52.420;10.640;2023-02-01T11:19:17;16.13;;;3.27;;
40150;SDS011;25866;52.420;10.640;2023-02-01T11:21:43;13.03;;;2.80;;
40150;SDS011;25866;52.420;10.640;2023-02-01T11:24:22;11.57;;;2.77;;
40150;SDS011;25866;52.420;10.640;2023-02-01T11:26:57;13.77;;;2.33;;
40150;SDS011;25866;52.420;10.640;2023-02-01T11:29:24;13.37;;;2.43;;
40150;SDS011;25866;52.420;10.640;2023-02-01T11:31:57;14.63;;;3.37;;
40150;SDS011;25866;52.420;10.640;2023-02-01T11:34:25;19.67;;;3.00;;
40150;SDS011;25866;52.420;10.640;2023-02-01T11:36:58;13.53;;;2.00;;
40150;SDS011;25866;52.420;10.640;2023-02-01T11:39:29;14.10;;;3.00;;
40150;SDS011;25866;52.420;10.640;2023-02-01T11:42:13;15.20;;;2.60;;
40150;SDS011;25866;52.420;10.640;2023-02-01T11:44:42;15.73;;;2.70;;
40150;SDS011;25866;52.420;10.640;2023-02-01T11:47:26;18.27;;;3.00;;
40150;SDS011;25866;52.420;10.640;2023-02-01T11:50:00;12.57;;;2.20;;
40150;SDS011;25866;52.420;10.640;2023-02-01T11:58:05;11.80;;;2.03;;
40150;SDS011;25866;52.420;10.640;2023-02-01T12:03:44;12.03;;;2.57;;
40150;SDS011;25866;52.420;10.640;2023-02-01T12:14:51;10.73;;;2.53;;
40150;SDS011;25866;52.420;10.640;2023-02-01T12:25:57;18.23;;;2.47;;
40150;SDS011;25866;52.420;10.640;2023-02-01T12:32:03;15.00;;;2.13;;
40150;SDS011;25866;52.420;10.640;2023-02-01T12:43:25;12.60;;;2.53;;
40150;SDS011;25866;52.420;10.640;2023-02-01T12:48:56;15.73;;;3.07;;
40150;SDS011;25866;52.420;10.640;2023-02-01T12:51:36;17.23;;;2.23;;
40150;SDS011;25866;52.420;10.640;2023-02-01T12:54:19;13.23;;;2.23;;
40150;SDS011;25866;52.420;10.640;2023-02-01T12:57:15;14.83;;;2.60;;
40150;SDS011;25866;52.420;10.640;2023-02-01T13:02:52;12.93;;;2.63;;
40150;SDS011;25866;52.420;10.640;2023-02-01T13:05:39;11.93;;;2.20;;
40150;SDS011;25866;52.420;10.640;2023-02-01T13:08:16;9.80;;;2.20;;
40150;SDS011;25866;52.420;10.640;2023-02-01T13:10:57;17.63;;;2.87;;
40150;SDS011;25866;52.420;10.640;2023-02-01T13:13:44;13.93;;;2.77;;
40150;SDS011;25866;52.420;10.640;2023-02-01T13:16:30;14.50;;;2.70;;
40150;SDS011;25866;52.420;10.640;2023-02-01T13:19:03;8.27;;;2.13;;
40150;SDS011;25866;52.420;10.640;2023-02-01T13:21:42;14.57;;;2.87;;
40150;SDS011;25866;52.420;10.640;2023-02-01T13:27:09;9.43;;;2.60;;
40150;SDS011;25866;52.420;10.640;2023-02-01T13:29:37;6.13;;;2.17;;
40150;SDS011;25866;52.420;10.640;2023-02-01T13:37:56;18.57;;;3.50;;
40150;SDS011;25866;52.420;10.640;2023-02-01T13:43:06;10.77;;;2.50;;
40150;SDS011;25866;52.420;10.640;2023-02-01T13:45:50;14.07;;;2.87;;
40150;SDS011;25866;52.420;10.640;2023-02-01T13:48:24;13.73;;;2.57;;
40150;SDS011;25866;52.420;10.640;2023-02-01T13:50:55;8.87;;;2.00;;
40150;SDS011;25866;52.420;10.640;2023-02-01T13:53:26;8.47;;;2.20;;
40150;SDS011;25866;52.420;10.640;2023-02-01T13:55:56;4.57;;;1.37;;
40150;SDS011;25866;52.420;10.640;2023-02-01T13:58:32;2.50;;;0.87;;
40150;SDS011;25866;52.420;10.640;2023-02-01T14:03:52;4.83;;;0.83;;
40150;SDS011;25866;52.420;10.640;2023-02-01T14:09:11;4.77;;;0.80;;
40150;SDS011;25866;52.420;10.640;2023-02-01T14:19:36;2.13;;;0.80;;
40150;SDS011;25866;52.420;10.640;2023-02-01T14:24:55;2.83;;;0.90;;
40150;SDS011;25866;52.420;10.640;2023-02-01T14:27:24;1.50;;;0.70;;
40150;SDS011;25866;52.420;10.640;2023-02-01T14:30:02;1.87;;;1.10;;
40150;SDS011;25866;52.420;10.640;2023-02-01T14:32:39;1.77;;;0.70;;
40150;SDS011;25866;52.420;10.640;2023-02-01T14:35:08;2.00;;;0.70;;
40150;SDS011;25866;52.420;10.640;2023-02-01T14:37:46;2.70;;;0.80;;
40150;SDS011;25866;52.420;10.640;2023-02-01T14:40:23;3.33;;;0.80;;
40150;SDS011;25866;52.420;10.640;2023-02-01T14:42:51;2.57;;;1.00;;
40150;SDS011;25866;52.420;10.640;2023-02-01T14:58:41;3.70;;;0.67;;
40150;SDS011;25866;52.420;10.640;2023-02-01T15:01:32;6.27;;;0.90;;
40150;SDS011;25866;52.420;10.640;2023-02-01T15:04:04;1.63;;;0.60;;
40150;SDS011;25866;52.420;10.640;2023-02-01T15:09:45;1.97;;;0.53;;
40150;SDS011;25866;52.420;10.640;2023-02-01T15:17:50;2.57;;;0.50;;
40150;SDS011;25866;52.420;10.640;2023-02-01T15:20:17;3.60;;;0.73;;
40150;SDS011;25866;52.420;10.640;2023-02-01T15:23:14;2.97;;;0.80;;
40150;SDS011;25866;52.420;10.640;2023-02-01T15:25:45;3.50;;;0.83;;
40150;SDS011;25866;52.420;10.640;2023-02-01T15:28:14;3.73;;;0.90;;
40150;SDS011;25866;52.420;10.640;2023-02-01T15:30:52;5.17;;;1.27;;
40150;SDS011;25866;52.420;10.640;2023-02-01T15:33:18;3.17;;;0.90;;
40150;SDS011;25866;52.420;10.640;2023-02-01T15:41:15;8.40;;;1.30;;
40150;SDS011;25866;52.420;10.640;2023-02-01T15:44:03;1.10;;;0.70;;
40150;SDS011;25866;52.420;10.640;2023-02-01T15:46:44;3.67;;;0.80;;
40150;SDS011;25866;52.420;10.640;2023-02-01T15:51:49;3.43;;;1.17;;
40150;SDS011;25866;52.420;10.640;2023-02-01T15:54:19;3.67;;;1.00;;
40150;SDS011;25866;52.420;10.640;2023-02-01T15:56:51;3.63;;;0.97;;
40150;SDS011;25866;52.420;10.640;2023-02-01T15:59:20;3.37;;;1.03;;
40150;SDS011;25866;52.420;10.640;2023-02-01T16:01:53;4.97;;;1.07;;
40150;SDS011;25866;52.420;10.640;2023-02-01T16:04:20;5.87;;;1.30;;
40150;SDS011;25866;52.420;10.640;2023-02-01T16:09:22;3.60;;;0.87;;
40150;SDS011;25866;52.420;10.640;2023-02-01T16:11:53;6.60;;;1.17;;
40150;SDS011;25866;52.420;10.640;2023-02-01T16:14:19;4.40;;;1.17;;
40150;SDS011;25866;52.420;10.640;2023-02-01T16:16:45;5.93;;;1.50;;
40150;SDS011;25866;52.420;10.640;2023-02-01T16:19:11;3.80;;;1.20;;
40150;SDS011;25866;52.420;10.640;2023-02-01T16:21:37;3.93;;;1.10;;
40150;SDS011;25866;52.420;10.640;2023-02-01T16:24:02;9.00;;;1.97;;
40150;SDS011;25866;52.420;10.640;2023-02-01T16:26:32;5.53;;;1.07;;
40150;SDS011;25866;52.420;10.640;2023-02-01T16:28:59;7.83;;;1.07;;
40150;SDS011;25866;52.420;10.640;2023-02-01T16:31:28;6.60;;;1.20;;
40150;SDS011;25866;52.420;10.640;2023-02-01T16:33:56;7.33;;;1.07;;
40150;SDS011;25866;52.420;10.640;2023-02-01T16:36:22;6.47;;;1.53;;
40150;SDS011;25866;52.420;10.640;2023-02-01T16:38:50;10.13;;;1.67;;
40150;SDS011;25866;52.420;10.640;2023-02-01T16:41:18;9.00;;;1.60;;
40150;SDS011;25866;52.420;10.640;2023-02-01T16:43:45;8.33;;;2.27;;
40150;SDS011;25866;52.420;10.640;2023-02-01T16:46:17;11.87;;;1.63;;
40150;SDS011;25866;52.420;10.640;2023-02-01T16:48:48;3.57;;;1.10;;
40150;SDS011;25866;52.420;10.640;2023-02-01T16:51:18;6.63;;;1.40;;
40150;SDS011;25866;52.420;10.640;2023-02-01T16:53:45;10.40;;;1.73;;
40150;SDS011;25866;52.420;10.640;2023-02-01T16:56:32;9.63;;;1.80;;
40150;SDS011;25866;52.420;10.640;2023-02-01T16:58:58;7.80;;;1.87;;
40150;SDS011;25866;52.420;10.640;2023-02-01T17:01:24;6.30;;;1.90;;
40150;SDS011;25866;52.420;10.640;2023-02-01T17:03:51;8.43;;;1.53;;
40150;SDS011;25866;52.420;10.640;2023-02-01T17:06:18;7.47;;;1.70;;
40150;SDS011;25866;52.420;10.640;2023-02-01T17:08:58;8.53;;;1.70;;
40150;SDS011;25866;52.420;10.640;2023-02-01T17:11:25;7.73;;;2.27;;
40150;SDS011;25866;52.420;10.640;2023-02-01T17:13:52;7.67;;;1.67;;
40150;SDS011;25866;52.420;10.640;2023-02-01T17:18:45;10.33;;;1.93;;
40150;SDS011;25866;52.420;10.640;2023-02-01T17:21:15;9.47;;;1.90;;
40150;SDS011;25866;52.420;10.640;2023-02-01T17:23:41;9.53;;;2.00;;
40150;SDS011;25866;52.420;10.640;2023-02-01T17:26:10;10.77;;;2.23;;
40150;SDS011;25866;52.420;10.640;2023-02-01T17:28:35;6.53;;;1.43;;
40150;SDS011;25866;52.420;10.640;2023-02-01T17:31:01;6.03;;;1.40;;